createdAt,value
2019-06-20T00:01:34.760Z,95507.62
2019-06-20T00:04:00.907Z,95502.24
2019-06-20T00:06:27.141Z,95504.39
2019-06-20T00:08:53.245Z,95497.98
2019-06-20T00:11:19.402Z,95491.53
2019-06-20T00:13:45.415Z,95497.99
2019-06-20T00:16:11.611Z,95499.86
2019-06-20T00:18:37.651Z,95507.13
2019-06-20T00:21:03.805Z,95505.80
2019-06-20T00:23:29.804Z,95501.25
2019-06-20T00:25:55.825Z,95496.69
2019-06-20T00:28:21.933Z,95495.61
2019-06-20T00:30:48.045Z,95492.67
2019-06-20T00:33:14.167Z,95492.94
2019-06-20T00:35:40.279Z,95496.20
2019-06-20T00:38:06.299Z,95498.63
2019-06-20T00:40:32.436Z,95500.48
2019-06-20T00:42:58.551Z,95496.19
2019-06-20T00:45:24.777Z,95494.86
2019-06-20T00:47:50.926Z,95489.50
2019-06-20T00:50:17.301Z,95484.68
2019-06-20T00:52:43.416Z,95484.14
2019-06-20T00:55:10.021Z,95491.66
2019-06-20T00:57:36.043Z,95493.83
2019-06-20T01:00:07.915Z,95488.95
2019-06-20T01:02:33.965Z,95482.80
2019-06-20T01:05:00.078Z,95480.65
2019-06-20T01:07:26.329Z,95479.86
2019-06-20T01:09:52.445Z,95483.61
2019-06-20T01:12:18.753Z,95487.91
2019-06-20T01:14:44.764Z,95490.59
2019-06-20T01:17:10.877Z,95498.89
2019-06-20T01:19:36.896Z,95494.63
2019-06-20T01:22:03.117Z,95501.34
2019-06-20T01:24:29.139Z,95487.91
2019-06-20T01:26:55.250Z,95491.66
2019-06-20T01:29:21.383Z,95489.79
2019-06-20T01:31:47.488Z,95498.36
2019-06-20T01:34:13.633Z,95500.80
2019-06-20T01:36:39.853Z,95499.16
2019-06-20T01:39:06.577Z,95498.38
2019-06-20T01:41:32.687Z,95495.97
2019-06-20T01:43:58.702Z,95501.05
2019-06-20T01:46:24.706Z,95498.66
2019-06-20T01:48:50.714Z,95505.89
2019-06-20T01:51:16.841Z,95496.23
2019-06-20T01:53:42.888Z,95493.27
2019-06-20T01:56:08.939Z,95499.70
2019-06-20T01:58:35.045Z,95495.95
2019-06-20T02:01:01.151Z,95495.16
2019-06-20T02:03:27.254Z,95493.25
2019-06-20T02:05:53.391Z,95497.84
2019-06-20T02:08:19.561Z,95492.73
2019-06-20T02:10:45.730Z,95492.73
2019-06-20T02:13:11.844Z,95494.61
2019-06-20T02:15:38.037Z,95491.92
2019-06-20T02:18:04.244Z,95486.30
2019-06-20T02:20:33.942Z,95486.83
2019-06-20T02:23:00.248Z,95483.08
2019-06-20T02:25:26.678Z,95491.92
2019-06-20T02:27:52.692Z,95498.10
2019-06-20T02:30:18.812Z,95500.78
2019-06-20T02:32:44.932Z,95497.55
2019-06-20T02:35:11.162Z,95497.81
2019-06-20T02:37:37.295Z,95497.83
2019-06-20T02:40:05.190Z,95497.27
2019-06-20T02:42:31.301Z,95500.77
2019-06-20T02:44:57.317Z,95497.02
2019-06-20T02:47:23.339Z,95494.60
2019-06-20T02:49:49.442Z,95498.34
2019-06-20T02:52:15.587Z,95498.36
2019-06-20T02:54:41.688Z,95503.98
2019-06-20T02:57:07.842Z,95503.70
2019-06-20T02:59:33.943Z,95510.14
2019-06-20T03:01:59.986Z,95514.17
2019-06-20T03:04:26.094Z,95519.79
2019-06-20T03:06:52.137Z,95516.87
2019-06-20T03:09:18.267Z,95524.37
2019-06-20T03:11:44.380Z,95520.85
2019-06-20T03:14:10.511Z,95527.56
2019-06-20T03:16:36.500Z,95523.30
2019-06-20T03:19:02.811Z,95523.28
2019-06-20T03:21:28.862Z,95527.85
2019-06-20T03:23:54.857Z,95526.52
2019-06-20T03:26:20.979Z,95530.52
2019-06-20T03:28:47.094Z,95529.47
2019-06-20T03:31:13.229Z,95532.41
2019-06-20T03:33:39.341Z,95534.56
2019-06-20T03:36:05.564Z,95545.55
2019-06-20T03:38:31.652Z,95536.98
2019-06-20T03:40:57.943Z,95537.51
2019-06-20T03:43:24.045Z,95543.97
2019-06-20T03:45:50.161Z,95549.33
2019-06-20T03:48:16.287Z,95548.80
2019-06-20T03:50:42.386Z,95543.17
2019-06-20T03:53:08.394Z,95550.94
2019-06-20T03:55:34.499Z,95542.64
2019-06-20T03:58:01.028Z,95543.98
2019-06-20T04:00:30.746Z,95545.04
2019-06-20T04:02:56.892Z,95535.67
2019-06-20T04:05:22.998Z,95545.05
2019-06-20T04:07:49.052Z,95545.32
2019-06-20T04:10:15.166Z,95545.84
2019-06-20T04:12:41.277Z,95545.59
2019-06-20T04:15:18.753Z,95550.95
2019-06-20T04:17:35.419Z,95549.36
2019-06-20T04:20:02.770Z,95546.64
2019-06-20T04:22:28.760Z,95550.92
2019-06-20T04:24:54.931Z,95545.84
2019-06-20T04:27:21.094Z,95551.77
2019-06-20T04:29:47.139Z,95548.27
2019-06-20T04:32:13.179Z,95553.91
2019-06-20T04:34:39.171Z,95550.15
2019-06-20T04:37:05.072Z,95556.84
2019-06-20T04:39:31.078Z,95556.59
2019-06-20T04:41:57.188Z,95558.73
2019-06-20T04:44:23.226Z,95549.89
2019-06-20T04:46:56.780Z,95552.57
2019-06-20T04:49:22.897Z,95557.14
2019-06-20T04:51:48.969Z,95560.37
2019-06-20T04:54:15.069Z,95560.62
2019-06-20T04:56:41.112Z,95561.73
2019-06-20T04:59:07.120Z,95556.89
2019-06-20T05:01:33.236Z,95564.40
2019-06-20T05:03:59.239Z,95569.23
2019-06-20T05:06:25.346Z,95568.44
2019-06-20T05:08:51.375Z,95570.86
2019-06-20T05:11:17.505Z,95571.38
2019-06-20T05:13:43.608Z,95578.63
2019-06-20T05:16:09.678Z,95569.22
2019-06-20T05:18:35.789Z,95580.52
2019-06-20T05:21:01.800Z,95581.86
2019-06-20T05:23:27.906Z,95578.09
2019-06-20T05:25:54.019Z,95583.46
2019-06-20T05:28:20.145Z,95580.52
2019-06-20T05:30:46.254Z,95578.61
2019-06-20T05:33:12.162Z,95579.95
2019-06-20T05:35:38.274Z,95584.25
2019-06-20T05:38:04.396Z,95583.44
2019-06-20T05:40:30.616Z,95588.27
2019-06-20T05:42:56.656Z,95588.00
2019-06-20T05:45:23.927Z,95590.93
2019-06-20T05:47:50.047Z,95591.72
2019-06-20T05:50:16.252Z,95590.92
2019-06-20T05:52:42.273Z,95598.44
2019-06-20T05:55:08.587Z,95598.45
2019-06-20T05:57:34.697Z,95602.20
2019-06-20T06:00:00.967Z,95600.06
2019-06-20T06:02:27.164Z,95597.63
2019-06-20T06:04:53.279Z,95599.50
2019-06-20T06:07:19.453Z,95598.42
2019-06-20T06:09:45.762Z,95596.27
2019-06-20T06:12:12.320Z,95597.89
2019-06-20T06:14:38.330Z,95600.84
2019-06-20T06:17:04.438Z,95609.97
2019-06-20T06:19:30.557Z,95606.48
2019-06-20T06:21:56.607Z,95606.48
2019-06-20T06:24:22.733Z,95607.00
2019-06-20T06:26:48.875Z,95610.76
2019-06-20T06:29:14.982Z,95613.48
2019-06-20T06:31:41.114Z,95601.36
2019-06-20T06:34:07.135Z,95608.64
2019-06-20T06:36:33.084Z,95608.64
2019-06-20T06:38:59.103Z,95607.28
2019-06-20T06:41:25.267Z,95613.45
2019-06-20T06:43:51.432Z,95616.67
2019-06-20T06:46:17.479Z,95613.42
2019-06-20T06:48:43.589Z,95617.18
2019-06-20T06:51:09.704Z,95611.58
2019-06-20T06:53:35.813Z,95615.05
2019-06-20T06:56:01.934Z,95612.38
2019-06-20T06:58:28.038Z,95615.56
2019-06-20T07:00:54.058Z,95612.03
2019-06-20T07:03:20.164Z,95603.37
2019-06-20T07:05:47.748Z,95607.97
2019-06-20T07:08:13.991Z,95612.01
2019-06-20T07:10:40.182Z,95612.27
2019-06-20T07:13:06.289Z,95613.81
2019-06-20T07:15:32.535Z,95614.86
2019-06-20T07:17:58.675Z,95617.77
2019-06-20T07:20:24.786Z,95615.36
2019-06-20T07:22:51.329Z,95607.01
2019-06-20T07:25:17.627Z,95612.86
2019-06-20T07:27:45.718Z,95611.23
2019-06-20T07:30:13.728Z,95608.80
2019-06-20T07:32:39.744Z,95612.30
2019-06-20T07:35:07.976Z,95607.94
2019-06-20T07:37:34.084Z,95606.84
2019-06-20T07:40:00.216Z,95614.39
2019-06-20T07:42:26.239Z,95613.82
2019-06-20T07:44:53.760Z,95615.09
2019-06-20T07:47:19.855Z,95618.53
2019-06-20T07:49:46.118Z,95610.94
2019-06-20T07:52:12.227Z,95609.26
2019-06-20T07:54:38.378Z,95607.59
2019-06-20T07:57:04.489Z,95605.41
2019-06-20T07:59:30.596Z,95606.44
2019-06-20T08:01:56.709Z,95608.51
2019-06-20T08:04:23.021Z,95609.55
2019-06-20T08:06:49.131Z,95611.52
2019-06-20T08:09:15.276Z,95606.77
2019-06-20T08:11:43.518Z,95611.75
2019-06-20T08:14:09.623Z,95614.86
2019-06-20T08:16:35.759Z,95613.70
2019-06-20T08:19:02.433Z,95614.45
2019-06-20T08:21:28.688Z,95604.16
2019-06-20T08:23:54.812Z,95608.95
2019-06-20T08:26:21.379Z,95606.76
2019-06-20T08:28:47.417Z,95605.89
2019-06-20T08:31:13.637Z,95604.23
2019-06-20T08:33:39.654Z,95599.05
2019-06-20T08:36:06.665Z,95593.06
2019-06-20T08:38:32.874Z,95591.41
2019-06-20T08:41:00.136Z,95591.88
2019-06-20T08:43:26.413Z,95589.39
2019-06-20T08:45:52.474Z,95589.04
2019-06-20T08:48:18.598Z,95593.61
2019-06-20T08:50:44.726Z,95591.42
2019-06-20T08:53:12.040Z,95591.59
2019-06-20T08:55:38.349Z,95587.98
2019-06-20T08:58:05.623Z,95589.84
2019-06-20T09:00:34.683Z,95588.50
2019-06-20T09:03:00.821Z,95593.66
2019-06-20T09:05:30.492Z,95591.41
2019-06-20T09:07:57.180Z,95592.58
2019-06-20T09:10:27.410Z,95581.97
2019-06-20T09:12:55.074Z,95585.26
2019-06-20T09:15:21.559Z,95584.61
2019-06-20T09:17:47.657Z,95582.57
2019-06-20T09:20:14.377Z,95583.50
2019-06-20T09:22:40.605Z,95575.63
2019-06-20T09:25:08.272Z,95569.92
2019-06-20T09:27:35.303Z,95581.48
2019-06-20T09:30:03.458Z,95579.97
2019-06-20T09:32:29.782Z,95571.70
2019-06-20T09:34:56.567Z,95576.98
2019-06-20T09:37:22.812Z,95570.08
2019-06-20T09:39:48.749Z,95567.00
2019-06-20T09:42:14.792Z,95566.56
2019-06-20T09:44:40.806Z,95558.64
2019-06-20T09:47:06.971Z,95562.33
2019-06-20T09:49:33.007Z,95554.98
2019-06-20T09:51:59.048Z,95559.59
2019-06-20T09:54:25.130Z,95561.25
2019-06-20T09:56:53.531Z,95568.76
2019-06-20T09:59:27.509Z,95567.64
2019-06-20T10:01:48.131Z,95570.66
2019-06-20T10:04:15.055Z,95571.91
2019-06-20T10:06:41.172Z,95565.60
2019-06-20T10:09:07.712Z,95571.76
2019-06-20T10:11:33.854Z,95574.81
2019-06-20T10:13:59.925Z,95569.56
2019-06-20T10:16:26.038Z,95579.03
2019-06-20T10:18:52.204Z,95577.10
2019-06-20T10:21:18.526Z,95580.69
2019-06-20T10:23:46.021Z,95580.59
2019-06-20T10:26:12.359Z,95577.81
2019-06-20T10:28:38.277Z,95573.24
2019-06-20T10:31:04.184Z,95569.19
2019-06-20T10:33:30.311Z,95567.48
2019-06-20T10:35:57.250Z,95574.64
2019-06-20T10:38:23.448Z,95567.72
2019-06-20T10:40:49.887Z,95568.20
2019-06-20T10:43:16.119Z,95570.06
2019-06-20T10:45:44.026Z,95567.55
2019-06-20T10:48:10.351Z,95568.33
2019-06-20T10:50:36.572Z,95561.83
2019-06-20T10:53:03.107Z,95567.64
2019-06-20T10:55:29.276Z,95567.38
2019-06-20T10:57:55.290Z,95561.66
2019-06-20T11:00:30.648Z,95558.95
2019-06-20T11:02:52.146Z,95551.44
2019-06-20T11:05:18.374Z,95554.34
2019-06-20T11:07:45.631Z,95553.00
2019-06-20T11:10:13.215Z,95547.30
2019-06-20T11:12:45.577Z,95530.30
2019-06-20T11:15:08.168Z,95539.36
2019-06-20T11:17:34.315Z,95541.41
2019-06-20T11:20:00.292Z,95539.31
2019-06-20T11:22:26.324Z,95538.69
2019-06-20T11:24:52.344Z,95532.05
2019-06-20T11:27:18.497Z,95533.75
2019-06-20T11:29:44.532Z,95532.77
2019-06-20T11:32:10.578Z,95534.61
2019-06-20T11:34:37.667Z,95525.40
2019-06-20T11:37:04.446Z,95519.22
2019-06-20T11:39:30.550Z,95522.06
2019-06-20T11:41:56.607Z,95523.20
2019-06-20T11:44:22.772Z,95512.52
2019-06-20T11:46:48.799Z,95511.73
2019-06-20T11:49:14.933Z,95508.56
2019-06-20T11:51:41.922Z,95518.13
2019-06-20T11:54:08.083Z,95520.95
2019-06-20T11:56:34.195Z,95514.66
2019-06-20T11:59:00.216Z,95508.22
2019-06-20T12:01:32.831Z,95510.61
2019-06-20T12:03:54.423Z,95513.45
2019-06-20T12:06:20.346Z,95509.30
2019-06-20T12:08:46.814Z,95510.51
2019-06-20T12:11:13.053Z,95495.06
2019-06-20T12:13:40.380Z,95498.59
2019-06-20T12:16:06.653Z,95495.70
2019-06-20T12:18:32.765Z,95492.98
2019-06-20T12:20:58.873Z,95490.11
2019-06-20T12:23:24.914Z,95482.81
2019-06-20T12:25:51.036Z,95478.09
2019-06-20T12:28:17.149Z,95473.94
2019-06-20T12:30:43.926Z,95468.55
2019-06-20T12:33:10.343Z,95462.47
2019-06-20T12:35:37.850Z,95462.47
2019-06-20T12:38:04.575Z,95456.06
2019-06-20T12:40:30.896Z,95452.63
2019-06-20T12:42:56.820Z,95449.53
2019-06-20T12:45:23.036Z,95439.72
2019-06-20T12:47:50.108Z,95442.52
2019-06-20T12:50:16.994Z,95440.60
2019-06-20T12:52:44.230Z,95435.67
2019-06-20T12:55:11.495Z,95424.23
2019-06-20T12:57:38.617Z,95424.73
2019-06-20T13:00:07.988Z,95423.68
2019-06-20T13:02:34.101Z,95427.46
2019-06-20T13:05:00.115Z,95428.50
2019-06-20T13:07:26.045Z,95428.25
2019-06-20T13:09:52.056Z,95424.14
2019-06-20T13:12:18.117Z,95424.12
2019-06-20T13:14:45.647Z,95418.27
2019-06-20T13:17:11.934Z,95422.22
2019-06-20T13:19:39.139Z,95414.50
2019-06-20T13:22:06.106Z,95408.15
2019-06-20T13:24:32.205Z,95410.02
2019-06-20T13:26:58.260Z,95409.16
2019-06-20T13:29:24.165Z,95403.45
2019-06-20T13:32:01.936Z,95404.91
2019-06-20T13:34:17.900Z,95408.88
2019-06-20T13:36:44.749Z,95407.77
2019-06-20T13:39:10.978Z,95405.69
2019-06-20T13:41:39.392Z,95404.75
2019-06-20T13:44:05.091Z,95392.36
2019-06-20T13:46:31.191Z,95396.03
2019-06-20T13:48:57.291Z,95397.11
2019-06-20T13:51:23.408Z,95393.06
2019-06-20T13:53:50.571Z,95392.84
2019-06-20T13:56:16.675Z,95391.99
2019-06-20T13:58:42.548Z,95387.28
2019-06-20T14:01:08.698Z,95391.34
2019-06-20T14:03:34.608Z,95389.05
2019-06-20T14:06:00.628Z,95385.48
2019-06-20T14:08:26.759Z,95394.19
2019-06-20T14:10:52.851Z,95387.59
2019-06-20T14:13:20.267Z,95376.31
2019-06-20T14:15:46.388Z,95376.52
2019-06-20T14:18:12.406Z,95382.84
2019-06-20T14:20:38.557Z,95379.69
2019-06-20T14:23:04.672Z,95385.08
2019-06-20T14:25:34.062Z,95386.18
2019-06-20T14:27:58.735Z,95385.95
2019-06-20T14:30:25.654Z,95386.79
2019-06-20T14:32:51.661Z,95382.16
2019-06-20T14:35:18.069Z,95383.23
2019-06-20T14:37:45.701Z,95381.09
2019-06-20T14:40:12.233Z,95383.17
2019-06-20T14:42:38.394Z,95399.73
2019-06-20T14:45:05.606Z,95402.27
2019-06-20T14:47:31.742Z,95404.90
2019-06-20T14:49:57.751Z,95404.02
2019-06-20T14:52:23.805Z,95402.30
2019-06-20T14:54:49.964Z,95403.06
2019-06-20T14:57:16.099Z,95404.80
2019-06-20T14:59:43.162Z,95403.38
2019-06-20T15:02:10.229Z,95407.77
2019-06-20T15:04:36.359Z,95405.59
2019-06-20T15:07:02.514Z,95412.28
2019-06-20T15:09:28.653Z,95405.87
2019-06-20T15:11:55.229Z,95412.66
2019-06-20T15:14:21.471Z,95411.22
2019-06-20T15:16:48.329Z,95416.20
2019-06-20T15:19:15.406Z,95418.02
2019-06-20T15:21:41.523Z,95428.05
2019-06-20T15:24:07.678Z,95423.60
2019-06-20T15:26:33.696Z,95443.42
2019-06-20T15:28:59.745Z,95436.61
2019-06-20T15:31:25.976Z,95454.24
2019-06-20T15:33:53.367Z,95461.55
2019-06-20T15:36:19.523Z,95468.31
2019-06-20T15:38:47.661Z,95471.55
2019-06-20T15:41:13.588Z,95476.84
2019-06-20T15:43:39.754Z,95470.12
2019-06-20T15:46:05.903Z,95468.04
2019-06-20T15:48:31.929Z,95465.84
2019-06-20T15:50:58.066Z,95456.51
2019-06-20T15:53:24.085Z,95458.13
2019-06-20T15:55:50.202Z,95450.22
2019-06-20T15:58:16.307Z,95463.55
2019-06-20T16:00:42.443Z,95470.86
2019-06-20T16:03:10.207Z,95469.23
2019-06-20T16:05:36.531Z,95469.23
2019-06-20T16:08:02.644Z,95472.87
2019-06-20T16:10:28.778Z,95479.11
2019-06-20T16:12:54.873Z,95475.03
2019-06-20T16:15:21.423Z,95472.27
2019-06-20T16:17:47.491Z,95469.57
2019-06-20T16:20:14.199Z,95464.77
2019-06-20T16:22:40.199Z,95460.27
2019-06-20T16:25:07.639Z,95466.29
2019-06-20T16:27:33.776Z,95466.29
2019-06-20T16:29:59.777Z,95466.80
2019-06-20T16:32:25.740Z,95466.61
2019-06-20T16:34:52.105Z,95451.44
2019-06-20T16:37:17.999Z,95454.56
2019-06-20T16:39:44.093Z,95455.64
2019-06-20T16:42:10.248Z,95457.89
2019-06-20T16:44:36.346Z,95446.88
2019-06-20T16:47:02.499Z,95456.41
2019-06-20T16:49:28.778Z,95451.91
2019-06-20T16:51:54.879Z,95457.25
2019-06-20T16:54:20.931Z,95456.20
2019-06-20T16:56:47.013Z,95462.14
2019-06-20T16:59:14.322Z,95453.04
2019-06-20T17:01:41.451Z,95454.84
2019-06-20T17:04:07.620Z,95457.78
2019-06-20T17:06:33.739Z,95464.05
2019-06-20T17:08:59.862Z,95460.95
2019-06-20T17:11:25.828Z,95458.17
2019-06-20T17:13:53.784Z,95469.42
2019-06-20T17:16:19.937Z,95473.83
2019-06-20T17:18:46.047Z,95478.48
2019-06-20T17:21:12.154Z,95474.48
2019-06-20T17:23:38.801Z,95481.84
2019-06-20T17:26:05.448Z,95476.52
2019-06-20T17:28:31.358Z,95479.02
2019-06-20T17:30:57.464Z,95480.59
2019-06-20T17:33:23.828Z,95477.75
2019-06-20T17:35:54.918Z,95482.23
2019-06-20T17:38:20.876Z,95484.91
2019-06-20T17:40:46.925Z,95490.16
2019-06-20T17:43:13.045Z,95486.86
2019-06-20T17:45:39.162Z,95493.28
2019-06-20T17:48:05.328Z,95499.03
2019-06-20T17:50:31.490Z,95503.42
2019-06-20T17:52:57.496Z,95504.91
2019-06-20T17:55:23.602Z,95512.78
2019-06-20T17:57:49.723Z,95517.10
2019-06-20T18:00:18.540Z,95513.80
2019-06-20T18:02:44.649Z,95518.09
2019-06-20T18:05:11.951Z,95520.31
2019-06-20T18:07:38.064Z,95520.84
2019-06-20T18:10:04.790Z,95518.42
2019-06-20T18:12:30.950Z,95525.64
2019-06-20T18:14:57.195Z,95532.09
2019-06-20T18:17:23.333Z,95531.84
2019-06-20T18:19:49.391Z,95538.83
2019-06-20T18:22:15.403Z,95549.60
2019-06-20T18:24:41.607Z,95545.76
2019-06-20T18:27:07.718Z,95547.92
2019-06-20T18:29:33.824Z,95542.58
2019-06-20T18:32:00.008Z,95545.76
2019-06-20T18:34:29.961Z,95555.42
2019-06-20T18:36:54.093Z,95558.13
2019-06-20T18:39:20.199Z,95563.27
2019-06-20T18:41:47.500Z,95567.84
2019-06-20T18:44:13.754Z,95571.38
2019-06-20T18:46:39.907Z,95570.60
2019-06-20T18:49:06.055Z,95570.08
2019-06-20T18:51:32.208Z,95580.09
2019-06-20T18:53:58.361Z,95576.38
2019-06-20T18:56:24.263Z,95583.11
2019-06-20T18:58:50.312Z,95580.72
2019-06-20T19:01:16.437Z,95584.20
2019-06-20T19:03:42.582Z,95586.90
2019-06-20T19:06:08.695Z,95589.06
2019-06-20T19:08:34.734Z,95593.16
2019-06-20T19:11:00.850Z,95598.59
2019-06-20T19:13:26.970Z,95595.98
2019-06-20T19:15:53.080Z,95601.63
2019-06-20T19:18:22.753Z,95602.15
2019-06-20T19:20:47.139Z,95603.73
2019-06-20T19:23:13.247Z,95608.59
2019-06-20T19:25:39.393Z,95614.77
2019-06-20T19:28:05.492Z,95608.84
2019-06-20T19:30:35.205Z,95608.59
2019-06-20T19:33:01.312Z,95606.68
2019-06-20T19:35:27.412Z,95608.31
2019-06-20T19:37:53.487Z,95611.30
2019-06-20T19:40:23.208Z,95609.46
2019-06-20T19:42:49.324Z,95609.75
2019-06-20T19:45:15.560Z,95613.02
2019-06-20T19:47:41.761Z,95611.95
2019-06-20T19:50:09.112Z,95606.58
2019-06-20T19:52:35.372Z,95605.27
2019-06-20T19:55:01.869Z,95605.02
2019-06-20T19:57:27.981Z,95607.18
2019-06-20T19:59:54.236Z,95606.94
2019-06-20T20:02:20.357Z,95613.67
2019-06-20T20:04:46.484Z,95605.42
2019-06-20T20:07:12.619Z,95599.80
2019-06-20T20:09:38.761Z,95591.19
2019-06-20T20:12:04.893Z,95580.16
2019-06-20T20:14:30.938Z,95593.38
2019-06-20T20:16:57.059Z,95590.97
2019-06-20T20:19:23.157Z,95598.27
2019-06-20T20:21:49.295Z,95608.51
2019-06-20T20:24:15.387Z,95612.30
2019-06-20T20:26:41.511Z,95609.64
2019-06-20T20:29:07.519Z,95606.38
2019-06-20T20:31:33.635Z,95603.44
2019-06-20T20:33:59.757Z,95601.56
2019-06-20T20:36:25.676Z,95598.88
2019-06-20T20:38:51.706Z,95589.20
2019-06-20T20:41:17.836Z,95583.29
2019-06-20T20:43:44.007Z,95581.20
2019-06-20T20:46:10.199Z,95588.98
2019-06-20T20:48:36.226Z,95591.14
2019-06-20T20:51:02.401Z,95592.52
2019-06-20T20:53:28.576Z,95594.95
2019-06-20T20:55:54.697Z,95600.59
2019-06-20T20:58:20.815Z,95600.34
2019-06-20T21:01:15.140Z,95597.65
2019-06-20T21:03:41.148Z,95590.67
2019-06-20T21:06:07.278Z,95601.15
2019-06-20T21:08:33.408Z,95603.59
2019-06-20T21:10:59.315Z,95611.13
2019-06-20T21:13:25.488Z,95616.78
2019-06-20T21:15:51.595Z,95612.75
2019-06-20T21:18:17.759Z,95612.25
2019-06-20T21:20:44.089Z,95609.02
2019-06-20T21:23:10.187Z,95615.46
2019-06-20T21:25:37.004Z,95622.47
2019-06-20T21:28:03.132Z,95625.22
2019-06-20T21:30:29.534Z,95629.84
2019-06-20T21:32:55.658Z,95629.82
2019-06-20T21:35:21.768Z,95629.30
2019-06-20T21:37:47.876Z,95631.68
2019-06-20T21:40:15.154Z,95633.31
2019-06-20T21:42:41.239Z,95634.37
2019-06-20T21:45:08.598Z,95630.62
2019-06-20T21:47:34.689Z,95626.33
2019-06-20T21:50:00.836Z,95634.11
2019-06-20T21:52:26.877Z,95637.08
2019-06-20T21:54:52.993Z,95625.25
2019-06-20T21:57:19.154Z,95623.92
2019-06-20T21:59:45.303Z,95619.38
2019-06-20T22:02:11.438Z,95616.97
2019-06-20T22:04:37.675Z,95615.08
2019-06-20T22:07:03.840Z,95611.57
2019-06-20T22:09:30.068Z,95611.31
2019-06-20T22:11:56.082Z,95611.05
2019-06-20T22:14:22.080Z,95602.19
2019-06-20T22:16:48.104Z,95607.84
2019-06-20T22:19:14.260Z,95608.13
2019-06-20T22:21:40.361Z,95614.30
2019-06-20T22:24:06.465Z,95618.06
2019-06-20T22:26:32.470Z,95616.45
2019-06-20T22:28:58.593Z,95619.43
2019-06-20T22:31:24.734Z,95623.18
2019-06-20T22:33:50.838Z,95628.28
2019-06-20T22:36:17.052Z,95623.46
2019-06-20T22:38:43.124Z,95617.83
2019-06-20T22:41:09.242Z,95620.53
2019-06-20T22:43:35.260Z,95628.30
2019-06-20T22:46:01.705Z,95631.82
2019-06-20T22:48:27.829Z,95625.36
2019-06-20T22:50:53.940Z,95619.45
2019-06-20T22:53:20.086Z,95613.28
2019-06-20T22:55:46.211Z,95610.31
2019-06-20T22:58:12.436Z,95607.91
2019-06-20T23:00:38.777Z,95613.00
2019-06-20T23:03:04.878Z,95614.08
2019-06-20T23:05:30.996Z,95615.68
2019-06-20T23:07:57.096Z,95606.03
2019-06-20T23:10:25.317Z,95606.58
2019-06-20T23:12:51.322Z,95609.80
2019-06-20T23:15:17.567Z,95606.03
2019-06-20T23:17:43.590Z,95618.91
2019-06-20T23:20:10.314Z,95614.88
2019-06-20T23:22:36.443Z,95613.28
2019-06-20T23:25:07.797Z,95608.44
2019-06-20T23:27:33.995Z,95603.34
2019-06-20T23:30:00.038Z,95605.48
2019-06-20T23:32:26.181Z,95611.09
2019-06-20T23:34:52.215Z,95617.55
2019-06-20T23:37:18.285Z,95614.58
2019-06-20T23:39:44.286Z,95619.40
2019-06-20T23:42:10.397Z,95607.34
2019-06-20T23:44:36.533Z,95604.36
2019-06-20T23:47:02.700Z,95608.39
2019-06-20T23:49:28.697Z,95607.61
2019-06-20T23:51:56.601Z,95607.86
2019-06-20T23:54:22.610Z,95606.53
2019-06-20T23:56:48.710Z,95611.61
2019-06-20T23:59:14.764Z,95603.56
